Terminal Aerodrome Forecast
Issued by NWS

Home | Current Version | Previous Version | Text Only | Print | Product List | Glossary On
Versions: 1 2 3 4 5 6 7 8 9 10 11 12 13 14 15
000
FTUS42 TJSJ 302320
TAFISX
TAF
TISX 302320Z 0100/0124 08010KT P6SM VCSH FEW022 SCT050 BKN100
      TEMPO 0100/0102 -SHRA BKN025 BKN040
     FM011300 08008KT P6SM -SHRA FEW025 SCT035 BKN080
     FM012300 06015G21KT P6SM VCTS SCT025CB SCT060 SCT090=

USA.gov is the U.S. government's official web portal to all federal, state and local government web resources and services.